Time;durP1;ratioP1;P1;durP2;ratioP2;P2;SDS_P1;SDS_P2;PMS_P1;PMS_P2;Temp;Humidity;BMP_temperature;BMP_pressure;BME280_temperature;BME280_humidity;BME280_pressure;Samples;Min_cycle;Max_cycle;Signal;HPM_P1;HPM_P2
2022/10/07 00:00:25;;;;;;;48.58;10.38;;;;;;;;;;6109292;23;20174;-92
2022/10/07 00:03:30;;;;;;;37.50;10.38;;;;;;;;;;6108577;23;20182;-90
2022/10/07 00:06:35;;;;;;;36.25;9.55;;;;;;;;;;6107394;23;20165;-90
2022/10/07 00:09:41;;;;;;;77.05;10.65;;;;;;;;;;6110218;23;20158;-90
2022/10/07 00:12:49;;;;;;;36.83;8.95;;;;;;;;;;6110629;23;20588;-89
2022/10/07 00:16:03;;;;;;;35.03;9.82;;;;;;;;;;6109176;23;20174;-89
2022/10/07 00:19:09;;;;;;;52.15;9.02;;;;;;;;;;6107790;23;20165;-89
2022/10/07 00:22:15;;;;;;;30.80;8.55;;;;;;;;;;6107314;23;20170;-89
2022/10/07 00:25:21;;;;;;;55.65;8.70;;;;;;;;;;6107226;23;20161;-89
2022/10/07 00:28:26;;;;;;;37.40;8.73;;;;;;;;;;6108432;23;20197;-88
2022/10/07 00:31:34;;;;;;;37.60;9.02;;;;;;;;;;6108629;23;20505;-91
2022/10/07 00:34:39;;;;;;;40.38;8.82;;;;;;;;;;6108135;23;20217;-92
2022/10/07 00:37:44;;;;;;;48.42;8.00;;;;;;;;;;6106812;23;20166;-89
2022/10/07 00:40:50;;;;;;;19.95;7.60;;;;;;;;;;6107558;23;20150;-92
2022/10/07 00:43:56;;;;;;;31.55;7.78;;;;;;;;;;6107798;23;20173;-90
2022/10/07 00:47:04;;;;;;;11.15;6.38;;;;;;;;;;6111285;23;20504;-91
2022/10/07 00:50:11;;;;;;;17.58;6.88;;;;;;;;;;6109676;23;20178;-90
2022/10/07 00:53:17;;;;;;;19.58;6.85;;;;;;;;;;6109847;23;20154;-90
2022/10/07 00:56:22;;;;;;;36.60;7.78;;;;;;;;;;6109536;23;20177;-88
2022/10/07 00:59:28;;;;;;;30.77;7.70;;;;;;;;;;6109320;23;20245;-89
2022/10/07 01:02:35;;;;;;;25.27;6.93;;;;;;;;;;6110334;23;20236;-90
2022/10/07 01:05:42;;;;;;;101.47;8.70;;;;;;;;;;6109801;23;20178;-91
2022/10/07 01:08:51;;;;;;;49.58;8.75;;;;;;;;;;6109886;23;20153;-91
2022/10/07 01:12:00;;;;;;;71.47;8.85;;;;;;;;;;6108539;23;20298;-90
2022/10/07 01:15:08;;;;;;;35.95;7.07;;;;;;;;;;6108283;23;20194;-89
2022/10/07 01:18:19;;;;;;;98.28;9.15;;;;;;;;;;6110237;23;20166;-92
2022/10/07 01:21:30;;;;;;;84.88;7.82;;;;;;;;;;6109204;23;20207;-89
2022/10/07 01:25:06;;;;;;;53.25;7.70;;;;;;;;;;6110054;23;20170;-90
2022/10/07 01:28:14;;;;;;;73.55;8.55;;;;;;;;;;6111721;23;20320;-91
2022/10/07 01:31:22;;;;;;;48.65;7.18;;;;;;;;;;6113280;23;20702;-91
2022/10/07 01:34:28;;;;;;;57.88;7.47;;;;;;;;;;6112165;23;20233;-90
2022/10/07 01:37:35;;;;;;;62.75;7.80;;;;;;;;;;6110736;23;20531;-92
2022/10/07 01:40:43;;;;;;;145.60;9.48;;;;;;;;;;6111305;23;20277;-91
2022/10/07 01:43:53;;;;;;;54.05;7.35;;;;;;;;;;6111752;23;20178;-91
2022/10/07 01:46:59;;;;;;;25.98;7.13;;;;;;;;;;6108867;23;20165;-92
2022/10/07 01:50:06;;;;;;;170.40;11.75;;;;;;;;;;6111858;23;20157;-89
2022/10/07 01:53:22;;;;;;;16.70;6.68;;;;;;;;;;6111175;23;20178;-90
2022/10/07 01:56:34;;;;;;;16.30;6.63;;;;;;;;;;6111901;23;20182;-91
2022/10/07 02:00:00;;;;;;;50.80;7.35;;;;;;;;;;6112843;23;20284;-89
2022/10/07 02:03:26;;;;;;;28.33;7.07;;;;;;;;;;6111822;23;20170;-90
2022/10/07 02:06:38;;;;;;;41.03;6.97;;;;;;;;;;6111415;23;20222;-89
2022/10/07 02:09:46;;;;;;;17.10;6.55;;;;;;;;;;6113021;23;20154;-91
2022/10/07 02:12:53;;;;;;;30.98;6.55;;;;;;;;;;6115009;23;20562;-92
2022/10/07 02:16:04;;;;;;;102.25;8.45;;;;;;;;;;6113394;23;20500;-89
2022/10/07 02:19:11;;;;;;;26.92;6.47;;;;;;;;;;6111440;23;20179;-91
2022/10/07 02:22:18;;;;;;;17.98;6.05;;;;;;;;;;6110044;23;20170;-89
2022/10/07 02:25:48;;;;;;;27.67;6.70;;;;;;;;;;6111166;23;20162;-91
2022/10/07 02:28:55;;;;;;;24.17;6.68;;;;;;;;;;6110836;23;20250;-89
2022/10/07 02:32:04;;;;;;;23.67;6.13;;;;;;;;;;6110306;23;20191;-90
2022/10/07 02:35:17;;;;;;;18.63;6.47;;;;;;;;;;6109826;23;20190;-89
2022/10/07 02:38:24;;;;;;;30.23;6.60;;;;;;;;;;6111495;23;20256;-89
2022/10/07 02:41:34;;;;;;;19.20;7.07;;;;;;;;;;6111199;23;20170;-90
2022/10/07 02:44:47;;;;;;;24.27;6.10;;;;;;;;;;6111174;23;20186;-90
2022/10/07 02:47:59;;;;;;;38.78;7.85;;;;;;;;;;6108946;23;20169;-89
2022/10/07 02:51:07;;;;;;;36.72;6.43;;;;;;;;;;6109200;23;20158;-90
2022/10/07 02:54:14;;;;;;;13.25;6.45;;;;;;;;;;6109716;23;20217;-90
2022/10/07 02:57:20;;;;;;;45.53;7.07;;;;;;;;;;6110280;23;20177;-89
2022/10/07 03:00:25;;;;;;;17.38;6.13;;;;;;;;;;6110241;23;20170;-90
2022/10/07 03:03:32;;;;;;;29.48;6.28;;;;;;;;;;6109257;23;20170;-91
2022/10/07 03:06:42;;;;;;;11.90;6.35;;;;;;;;;;6108151;23;20219;-86
2022/10/07 03:09:47;;;;;;;24.35;6.03;;;;;;;;;;6111265;23;20161;-91
2022/10/07 03:12:52;;;;;;;24.17;6.90;;;;;;;;;;6110662;23;20174;-89
2022/10/07 03:15:58;;;;;;;77.10;8.13;;;;;;;;;;6111095;23;20196;-90
2022/10/07 03:19:06;;;;;;;35.95;7.00;;;;;;;;;;6110837;23;20169;-92
2022/10/07 03:22:31;;;;;;;36.40;6.32;;;;;;;;;;6108956;23;20175;-89
2022/10/07 03:25:38;;;;;;;52.95;7.10;;;;;;;;;;6108904;23;20178;-90
2022/10/07 03:28:43;;;;;;;78.07;7.28;;;;;;;;;;6108991;23;20193;-89
2022/10/07 03:31:48;;;;;;;41.47;6.90;;;;;;;;;;6109854;23;20210;-90
2022/10/07 03:34:55;;;;;;;34.58;6.65;;;;;;;;;;6107334;23;20189;-90
2022/10/07 03:38:00;;;;;;;43.65;6.78;;;;;;;;;;6106054;23;20170;-90
2022/10/07 03:41:06;;;;;;;39.08;7.15;;;;;;;;;;6108036;23;20183;-90
2022/10/07 03:44:13;;;;;;;36.08;6.85;;;;;;;;;;6108862;23;20215;-90
2022/10/07 03:47:20;;;;;;;36.65;6.25;;;;;;;;;;6110021;23;20633;-89
2022/10/07 03:50:27;;;;;;;25.05;6.05;;;;;;;;;;6108270;23;20174;-91
2022/10/07 03:53:34;;;;;;;24.75;6.20;;;;;;;;;;6107669;23;20166;-90
2022/10/07 03:56:41;;;;;;;31.75;6.53;;;;;;;;;;6108878;23;20223;-89
2022/10/07 03:59:46;;;;;;;31.98;6.53;;;;;;;;;;6109569;23;20222;-89
2022/10/07 04:03:22;;;;;;;53.05;6.72;;;;;;;;;;6110568;23;20186;-90
2022/10/07 04:06:30;;;;;;;61.08;6.47;;;;;;;;;;6109441;23;20218;-89
2022/10/07 04:09:36;;;;;;;39.08;7.00;;;;;;;;;;6109640;23;20169;-90
2022/10/07 04:12:41;;;;;;;37.95;6.20;;;;;;;;;;6109710;23;20189;-89
2022/10/07 04:15:47;;;;;;;34.42;6.32;;;;;;;;;;6110689;23;20201;-90
2022/10/07 04:18:55;;;;;;;68.22;6.65;;;;;;;;;;6111593;23;20170;-90
2022/10/07 04:22:04;;;;;;;35.15;6.47;;;;;;;;;;6110125;23;20158;-90
2022/10/07 04:28:34;;;;;;;58.83;7.00;;;;;;;;;;6110981;23;20188;-88
2022/10/07 04:31:45;;;;;;;99.53;9.43;;;;;;;;;;6110906;23;20620;-89
2022/10/07 04:34:51;;;;;;;30.58;7.07;;;;;;;;;;6110781;23;20197;-87
2022/10/07 04:37:58;;;;;;;76.70;6.60;;;;;;;;;;6108729;23;20169;-91
2022/10/07 04:41:07;;;;;;;29.92;6.78;;;;;;;;;;6110773;23;20220;-91
2022/10/07 04:44:13;;;;;;;47.13;7.40;;;;;;;;;;6110034;23;20198;-91
2022/10/07 04:47:27;;;;;;;41.47;6.22;;;;;;;;;;6111672;23;20174;-89
2022/10/07 04:50:37;;;;;;;79.47;7.22;;;;;;;;;;6112179;23;20157;-90
2022/10/07 04:53:52;;;;;;;29.27;6.68;;;;;;;;;;6109936;23;20165;-89
2022/10/07 04:56:59;;;;;;;44.92;7.07;;;;;;;;;;6110842;23;20178;-90
2022/10/07 05:00:07;;;;;;;40.15;6.78;;;;;;;;;;6110303;23;20165;-92
2022/10/07 05:03:15;;;;;;;48.70;6.90;;;;;;;;;;6095408;23;20185;-89
2022/10/07 05:06:20;;;;;;;37.95;6.40;;;;;;;;;;6112579;23;20179;-92
2022/10/07 05:09:28;;;;;;;32.33;6.43;;;;;;;;;;6110129;23;20173;-88
2022/10/07 05:12:41;;;;;;;20.65;6.40;;;;;;;;;;6111812;23;20170;-90
2022/10/07 05:15:50;;;;;;;40.63;6.68;;;;;;;;;;6110745;23;20301;-90
2022/10/07 05:18:57;;;;;;;24.45;6.78;;;;;;;;;;6110838;23;20177;-90
2022/10/07 05:22:04;;;;;;;20.48;5.75;;;;;;;;;;6110642;23;20166;-90
2022/10/07 05:25:28;;;;;;;37.05;7.20;;;;;;;;;;6111017;23;20195;-90
2022/10/07 05:28:36;;;;;;;53.47;6.40;;;;;;;;;;6109879;23;20196;-91
2022/10/07 05:31:41;;;;;;;23.23;6.22;;;;;;;;;;6112279;23;20173;-89
2022/10/07 05:34:51;;;;;;;44.97;5.75;;;;;;;;;;6114346;23;20250;-89
2022/10/07 05:38:00;;;;;;;37.42;6.45;;;;;;;;;;6113336;23;20544;-90
2022/10/07 05:41:07;;;;;;;60.33;6.47;;;;;;;;;;6113427;23;20174;-89
2022/10/07 05:44:19;;;;;;;30.13;5.95;;;;;;;;;;6112981;23;20597;-90
2022/10/07 05:47:27;;;;;;;28.42;6.07;;;;;;;;;;6114058;23;20154;-92
2022/10/07 05:50:33;;;;;;;30.15;6.97;;;;;;;;;;6112472;23;20239;-90
2022/10/07 05:53:40;;;;;;;12.40;5.43;;;;;;;;;;6112296;23;20166;-90
2022/10/07 05:56:46;;;;;;;30.95;6.22;;;;;;;;;;6112494;23;20178;-91
2022/10/07 05:59:57;;;;;;;26.17;5.75;;;;;;;;;;6115037;23;20206;-92
2022/10/07 06:03:03;;;;;;;35.33;6.75;;;;;;;;;;6114667;23;20226;-93
2022/10/07 06:06:09;;;;;;;28.05;6.15;;;;;;;;;;6113701;23;20162;-90
2022/10/07 06:16:13;;;;;;;53.92;6.10;;;;;;;;;;6114007;23;20207;-90
2022/10/07 06:19:24;;;;;;;14.23;5.03;;;;;;;;;;6115825;23;20261;-90
2022/10/07 06:22:37;;;;;;;15.73;5.45;;;;;;;;;;6112705;23;20170;-90
2022/10/07 06:25:44;;;;;;;10.25;5.20;;;;;;;;;;6114081;23;20182;-89
2022/10/07 06:28:54;;;;;;;8.65;5.45;;;;;;;;;;6114027;23;20278;-91
2022/10/07 06:32:11;;;;;;;12.48;4.60;;;;;;;;;;6116729;23;20193;-89
2022/10/07 06:35:25;;;;;;;21.20;5.35;;;;;;;;;;6113309;23;20212;-91
2022/10/07 06:38:33;;;;;;;15.35;5.00;;;;;;;;;;6112884;23;20177;-90
2022/10/07 06:41:39;;;;;;;14.23;6.07;;;;;;;;;;6113790;23;20242;-91
2022/10/07 06:45:17;;;;;;;29.88;5.10;;;;;;;;;;6103752;23;20239;-92
2022/10/07 06:48:25;;;;;;;32.38;6.20;;;;;;;;;;6112538;23;20174;-91
2022/10/07 06:51:31;;;;;;;17.13;5.50;;;;;;;;;;6111455;23;20173;-90
2022/10/07 06:54:39;;;;;;;14.30;5.60;;;;;;;;;;6111486;23;20170;-88
2022/10/07 06:57:45;;;;;;;22.77;5.75;;;;;;;;;;6111673;23;20166;-92
2022/10/07 07:00:51;;;;;;;15.65;5.53;;;;;;;;;;6113232;23;20153;-91
2022/10/07 07:04:03;;;;;;;10.13;5.32;;;;;;;;;;6114034;23;20165;-92
2022/10/07 07:10:31;;;;;;;39.63;11.90;;;;;;;;;;6112933;23;20210;-91
2022/10/07 07:13:40;;;;;;;16.17;8.88;;;;;;;;;;6114609;23;20170;-92
2022/10/07 07:16:45;;;;;;;11.25;5.50;;;;;;;;;;6112707;23;20197;-91
2022/10/07 07:19:52;;;;;;;24.60;5.72;;;;;;;;;;6110690;23;20609;-88
2022/10/07 07:26:19;;;;;;;17.23;6.68;;;;;;;;;;6111919;23;20195;-91
2022/10/07 07:29:25;;;;;;;11.27;5.72;;;;;;;;;;6111730;23;20197;-91
2022/10/07 07:32:37;;;;;;;12.75;5.70;;;;;;;;;;6110703;23;20169;-92
2022/10/07 07:35:44;;;;;;;11.02;6.28;;;;;;;;;;6110927;23;20311;-91
2022/10/07 07:38:52;;;;;;;10.05;5.88;;;;;;;;;;6111931;23;20230;-90
2022/10/07 07:41:57;;;;;;;10.60;5.68;;;;;;;;;;6111970;23;20245;-91
2022/10/07 07:45:04;;;;;;;11.20;5.70;;;;;;;;;;6110509;23;20174;-90
2022/10/07 07:48:12;;;;;;;9.93;5.65;;;;;;;;;;6109779;23;20189;-89
2022/10/07 07:51:21;;;;;;;8.38;5.55;;;;;;;;;;6107014;23;20624;-90
2022/10/07 07:54:28;;;;;;;11.98;5.85;;;;;;;;;;6108464;23;20154;-93
2022/10/07 07:57:34;;;;;;;9.52;5.70;;;;;;;;;;6107618;23;20238;-90
2022/10/07 08:00:45;;;;;;;11.68;5.97;;;;;;;;;;6111835;23;20194;-89
2022/10/07 08:03:51;;;;;;;10.80;6.00;;;;;;;;;;6110006;23;20552;-91
2022/10/07 15:05:01;;;;;;;21.08;9.98;;;;;;;;;;6092106;23;20214;-90
2022/10/07 15:08:14;;;;;;;18.98;9.65;;;;;;;;;;6109707;23;20189;-91
2022/10/07 15:11:24;;;;;;;18.60;9.98;;;;;;;;;;6111145;23;20253;-88
2022/10/07 15:21:37;;;;;;;17.35;10.45;;;;;;;;;;6111749;23;20238;-92
2022/10/07 15:24:48;;;;;;;23.42;10.68;;;;;;;;;;6110868;23;20250;-90
2022/10/07 15:27:57;;;;;;;17.83;10.15;;;;;;;;;;6113693;23;20170;-89
2022/10/07 15:31:34;;;;;;;22.38;11.57;;;;;;;;;;6114112;23;20161;-90
2022/10/07 15:35:15;;;;;;;25.17;12.90;;;;;;;;;;6113589;23;20347;-93
2022/10/07 15:38:29;;;;;;;21.00;10.45;;;;;;;;;;6128372;23;20174;-91
2022/10/07 15:41:57;;;;;;;19.23;10.85;;;;;;;;;;6112773;23;20218;-91
2022/10/07 15:45:26;;;;;;;21.95;11.07;;;;;;;;;;6115308;23;20190;-92
2022/10/07 15:48:38;;;;;;;21.08;11.15;;;;;;;;;;6111613;23;20205;-91
2022/10/07 15:51:48;;;;;;;28.00;12.98;;;;;;;;;;6112178;23;20182;-90
2022/10/07 15:55:19;;;;;;;26.67;12.35;;;;;;;;;;6113864;23;20154;-92
2022/10/07 16:02:27;;;;;;;28.13;12.40;;;;;;;;;;6111556;23;20634;-90
2022/10/07 16:05:43;;;;;;;27.33;12.00;;;;;;;;;;6130307;23;20188;-95
2022/10/07 16:08:57;;;;;;;32.72;12.45;;;;;;;;;;6113010;23;20206;-90
2022/10/07 16:12:12;;;;;;;24.90;13.32;;;;;;;;;;6111051;23;20175;-92
2022/10/07 16:16:11;;;;;;;24.00;12.85;;;;;;;;;;6112206;23;20337;-93
2022/10/07 16:19:19;;;;;;;25.90;12.63;;;;;;;;;;6111735;23;20202;-92
2022/10/07 16:22:24;;;;;;;29.50;14.38;;;;;;;;;;6113147;23;20225;-92
2022/10/07 16:25:48;;;;;;;32.25;14.25;;;;;;;;;;6110932;23;20246;-90
2022/10/07 16:32:20;;;;;;;31.33;14.85;;;;;;;;;;6112134;23;20174;-91
2022/10/07 16:39:03;;;;;;;32.10;16.40;;;;;;;;;;6113826;23;20185;-91
2022/10/07 16:42:08;;;;;;;36.15;18.50;;;;;;;;;;6112749;23;20169;-91
2022/10/07 16:45:14;;;;;;;35.65;16.95;;;;;;;;;;6113685;23;20169;-91
2022/10/07 16:48:19;;;;;;;42.13;17.08;;;;;;;;;;6112068;23;20193;-91
2022/10/07 16:51:26;;;;;;;35.80;17.88;;;;;;;;;;6110157;23;20169;-91
2022/10/07 16:54:36;;;;;;;36.80;18.58;;;;;;;;;;6111513;23;20178;-90
2022/10/07 16:57:41;;;;;;;39.03;19.17;;;;;;;;;;6112655;23;20247;-89
2022/10/07 17:00:47;;;;;;;48.05;21.30;;;;;;;;;;6112908;23;20293;-91
2022/10/07 17:07:13;;;;;;;47.72;20.77;;;;;;;;;;6118089;23;20194;-92
2022/10/07 17:10:35;;;;;;;49.00;22.95;;;;;;;;;;6116730;23;20170;-89
2022/10/07 17:13:43;;;;;;;39.53;20.63;;;;;;;;;;6116513;23;20478;-92
2022/10/07 17:16:49;;;;;;;45.53;21.58;;;;;;;;;;6114475;23;20194;-89
2022/10/07 17:19:54;;;;;;;46.15;20.70;;;;;;;;;;6112085;23;20165;-91
2022/10/07 17:22:59;;;;;;;43.33;20.65;;;;;;;;;;6112503;23;20169;-90
2022/10/07 17:26:41;;;;;;;40.38;19.77;;;;;;;;;;6110069;23;20174;-90
2022/10/07 17:29:54;;;;;;;42.88;21.20;;;;;;;;;;6112814;23;20586;-91
2022/10/07 17:32:59;;;;;;;43.63;20.85;;;;;;;;;;6111789;23;20639;-92
2022/10/07 17:36:07;;;;;;;46.58;19.88;;;;;;;;;;6112203;23;20161;-92
2022/10/07 17:39:12;;;;;;;39.72;20.15;;;;;;;;;;6113302;23;20185;-91
2022/10/07 17:42:17;;;;;;;47.40;20.48;;;;;;;;;;6111288;23;20241;-91
2022/10/07 17:45:24;;;;;;;42.85;20.67;;;;;;;;;;6112285;23;20633;-91
2022/10/07 17:48:29;;;;;;;44.88;21.95;;;;;;;;;;6113480;23;20162;-90
2022/10/07 17:51:36;;;;;;;43.08;20.40;;;;;;;;;;6114357;23;20258;-90
2022/10/07 17:58:55;;;;;;;45.20;22.08;;;;;;;;;;6113463;23;20202;-90
2022/10/07 18:02:04;;;;;;;50.53;23.27;;;;;;;;;;6111596;23;20169;-91
2022/10/07 18:05:10;;;;;;;45.90;22.92;;;;;;;;;;6110934;23;20258;-92
2022/10/07 18:08:16;;;;;;;45.33;21.88;;;;;;;;;;6113086;23;20164;-92
2022/10/07 18:11:21;;;;;;;44.50;22.15;;;;;;;;;;6111575;23;20218;-90
2022/10/07 18:17:56;;;;;;;51.20;23.27;;;;;;;;;;6112022;23;20245;-92
2022/10/07 18:21:05;;;;;;;47.78;23.50;;;;;;;;;;6112549;23;20199;-88
2022/10/07 18:27:42;;;;;;;48.55;21.27;;;;;;;;;;6111141;23;20179;-90
2022/10/07 18:30:47;;;;;;;49.83;22.88;;;;;;;;;;6112160;23;20158;-91
2022/10/07 18:33:54;;;;;;;47.65;22.08;;;;;;;;;;6110361;23;20188;-90
2022/10/07 18:37:00;;;;;;;47.83;21.85;;;;;;;;;;6111528;23;20193;-89
2022/10/07 18:40:05;;;;;;;41.20;21.38;;;;;;;;;;6110190;23;20505;-90
2022/10/07 18:43:10;;;;;;;46.83;21.88;;;;;;;;;;6113040;23;20210;-91
2022/10/07 18:46:17;;;;;;;52.75;23.30;;;;;;;;;;6112876;23;20302;-90
2022/10/07 18:49:23;;;;;;;48.58;23.85;;;;;;;;;;6112391;23;20166;-90
2022/10/07 18:52:29;;;;;;;45.65;21.48;;;;;;;;;;6112551;23;20157;-90
2022/10/07 18:55:39;;;;;;;45.45;22.75;;;;;;;;;;6112788;23;20174;-90
2022/10/07 18:58:45;;;;;;;55.85;21.73;;;;;;;;;;6112637;23;20291;-90
2022/10/07 19:01:50;;;;;;;40.88;20.38;;;;;;;;;;6111735;23;20177;-91
2022/10/07 19:04:57;;;;;;;40.53;21.00;;;;;;;;;;6110530;23;20210;-91
2022/10/07 19:08:02;;;;;;;47.30;21.90;;;;;;;;;;6112637;23;20158;-91
2022/10/07 19:11:09;;;;;;;47.30;21.38;;;;;;;;;;6113286;23;20173;-87
2022/10/07 19:14:14;;;;;;;51.75;21.38;;;;;;;;;;6112235;23;20214;-91
2022/10/07 19:17:19;;;;;;;46.03;20.75;;;;;;;;;;6110695;23;20330;-88
2022/10/07 19:20:39;;;;;;;48.92;20.95;;;;;;;;;;6112306;23;20256;-90
2022/10/07 19:23:47;;;;;;;42.33;20.95;;;;;;;;;;6113003;23;20162;-90
2022/10/07 19:26:54;;;;;;;40.17;20.52;;;;;;;;;;6115036;23;20216;-90
2022/10/07 19:30:01;;;;;;;46.78;21.23;;;;;;;;;;6112817;23;20178;-93
2022/10/07 19:33:09;;;;;;;43.35;21.63;;;;;;;;;;6112658;23;20153;-90
2022/10/07 19:36:15;;;;;;;50.50;21.23;;;;;;;;;;6113239;23;20226;-90
2022/10/07 19:39:23;;;;;;;47.35;22.00;;;;;;;;;;6112727;23;20496;-90
2022/10/07 19:42:28;;;;;;;41.70;20.65;;;;;;;;;;6111960;23;20173;-89
2022/10/07 19:45:36;;;;;;;43.90;22.08;;;;;;;;;;6113412;23;20229;-87
2022/10/07 19:48:41;;;;;;;46.80;21.20;;;;;;;;;;6113296;23;20175;-90
2022/10/07 19:51:47;;;;;;;45.05;20.95;;;;;;;;;;6112709;23;20233;-90
2022/10/07 19:54:57;;;;;;;70.55;35.05;;;;;;;;;;6109888;23;20177;-89
2022/10/07 19:58:03;;;;;;;47.40;22.15;;;;;;;;;;6111207;23;20181;-89
2022/10/07 20:01:10;;;;;;;45.70;22.27;;;;;;;;;;6110109;23;20678;-90
2022/10/07 20:04:17;;;;;;;45.28;22.85;;;;;;;;;;6110024;23;20242;-91
2022/10/07 20:07:22;;;;;;;47.28;22.13;;;;;;;;;;6109975;23;20453;-90
2022/10/07 20:10:29;;;;;;;47.83;22.27;;;;;;;;;;6108886;23;20369;-89
2022/10/07 20:13:35;;;;;;;51.83;22.73;;;;;;;;;;6109192;23;20228;-89
2022/10/07 20:16:41;;;;;;;59.88;22.88;;;;;;;;;;6109941;23;20170;-89
2022/10/07 20:19:46;;;;;;;54.63;22.27;;;;;;;;;;6108252;23;20485;-90
2022/10/07 20:22:54;;;;;;;57.17;23.67;;;;;;;;;;6109151;23;20199;-90
2022/10/07 20:29:55;;;;;;;48.22;20.00;;;;;;;;;;6110738;23;20232;-90
2022/10/07 20:33:05;;;;;;;48.40;20.85;;;;;;;;;;6110091;23;20195;-89
2022/10/07 20:36:11;;;;;;;49.97;20.83;;;;;;;;;;6111532;23;20170;-91
2022/10/07 20:42:41;;;;;;;55.22;21.42;;;;;;;;;;6107878;23;20218;-90
2022/10/07 20:45:59;;;;;;;226.93;80.72;;;;;;;;;;6107089;23;20238;-91
2022/10/07 20:49:09;;;;;;;88.53;37.88;;;;;;;;;;6108277;23;20173;-89
2022/10/07 20:52:16;;;;;;;51.85;22.77;;;;;;;;;;6105818;23;20170;-91
2022/10/07 20:55:21;;;;;;;47.22;22.17;;;;;;;;;;6107406;23;20198;-89
2022/10/07 20:58:27;;;;;;;55.47;21.45;;;;;;;;;;6107334;23;20238;-89
2022/10/07 21:01:34;;;;;;;58.95;22.90;;;;;;;;;;6105916;23;20189;-91
2022/10/07 21:04:39;;;;;;;53.03;22.60;;;;;;;;;;6107945;23;20252;-92
2022/10/07 21:07:44;;;;;;;57.25;23.95;;;;;;;;;;6110402;23;20170;-90
2022/10/07 21:10:49;;;;;;;49.90;22.40;;;;;;;;;;6108190;23;20166;-91
2022/10/07 21:13:55;;;;;;;50.97;21.35;;;;;;;;;;6107752;23;20174;-89
2022/10/07 21:17:02;;;;;;;55.88;21.83;;;;;;;;;;6107080;23;20462;-90
2022/10/07 21:20:08;;;;;;;60.45;23.90;;;;;;;;;;6107471;23;20161;-91
2022/10/07 21:23:13;;;;;;;59.72;22.77;;;;;;;;;;6108430;23;20170;-92
2022/10/07 21:29:54;;;;;;;54.45;23.88;;;;;;;;;;6106803;23;20720;-92
2022/10/07 21:33:01;;;;;;;63.83;23.00;;;;;;;;;;6107070;23;20241;-91
2022/10/07 21:36:09;;;;;;;66.38;24.30;;;;;;;;;;6106528;23;20376;-91
2022/10/07 21:39:15;;;;;;;58.67;23.25;;;;;;;;;;6105417;23;20271;-90
2022/10/07 21:42:21;;;;;;;59.25;25.10;;;;;;;;;;6108050;23;20182;-90
2022/10/07 21:45:26;;;;;;;56.25;23.58;;;;;;;;;;6107812;23;20174;-89
2022/10/07 21:48:33;;;;;;;59.05;23.30;;;;;;;;;;6108309;23;20182;-90
2022/10/07 21:51:38;;;;;;;63.42;25.08;;;;;;;;;;6108858;23;20150;-91
2022/10/07 21:54:44;;;;;;;69.30;27.15;;;;;;;;;;6108762;23;20500;-92
2022/10/07 21:57:49;;;;;;;64.53;24.73;;;;;;;;;;6106725;23;20197;-90
2022/10/07 22:04:37;;;;;;;80.40;26.95;;;;;;;;;;6109401;23;20213;-88
2022/10/07 22:11:06;;;;;;;66.75;24.98;;;;;;;;;;6108244;23;20166;-91
2022/10/07 22:14:12;;;;;;;78.00;25.70;;;;;;;;;;6107051;23;20173;-89
2022/10/07 22:17:17;;;;;;;73.72;25.83;;;;;;;;;;6108874;23;20201;-90
2022/10/07 22:20:23;;;;;;;73.80;28.15;;;;;;;;;;6108654;23;20174;-90
2022/10/07 22:23:31;;;;;;;71.05;26.10;;;;;;;;;;6107343;23;20618;-91
2022/10/07 22:26:39;;;;;;;84.07;27.10;;;;;;;;;;6107109;23;20166;-91
2022/10/07 22:29:44;;;;;;;79.40;26.58;;;;;;;;;;6106928;23;20174;-89
2022/10/07 22:32:49;;;;;;;75.13;26.70;;;;;;;;;;6104617;23;20182;-91
2022/10/07 22:35:56;;;;;;;82.25;26.50;;;;;;;;;;6106735;23;20157;-89
2022/10/07 22:39:01;;;;;;;78.90;26.33;;;;;;;;;;6109302;23;20200;-90
2022/10/07 22:42:06;;;;;;;73.75;27.73;;;;;;;;;;6107714;23;20618;-91
2022/10/07 22:45:12;;;;;;;76.15;28.00;;;;;;;;;;6107662;23;20207;-91
2022/10/07 22:48:17;;;;;;;77.35;28.23;;;;;;;;;;6107981;23;20234;-90
2022/10/07 22:51:25;;;;;;;81.72;32.63;;;;;;;;;;6109692;23;20173;-91
2022/10/07 22:54:30;;;;;;;95.35;38.28;;;;;;;;;;6109905;23;20177;-92
2022/10/07 22:57:36;;;;;;;91.00;35.55;;;;;;;;;;6108492;23;20234;-90
2022/10/07 23:00:42;;;;;;;105.88;38.80;;;;;;;;;;6111190;23;20182;-91
2022/10/07 23:03:48;;;;;;;100.07;37.40;;;;;;;;;;6111240;23;20170;-90
2022/10/07 23:06:56;;;;;;;104.05;38.38;;;;;;;;;;6110826;23;20169;-92
2022/10/07 23:10:02;;;;;;;105.03;37.50;;;;;;;;;;6112476;23;20177;-91
2022/10/07 23:13:08;;;;;;;105.07;38.25;;;;;;;;;;6111637;23;20202;-90
2022/10/07 23:16:14;;;;;;;94.35;35.83;;;;;;;;;;6109287;23;20170;-91
2022/10/07 23:19:20;;;;;;;112.93;38.45;;;;;;;;;;6108836;23;20181;-91
2022/10/07 23:22:27;;;;;;;117.80;41.83;;;;;;;;;;6112509;23;20162;-91
2022/10/07 23:26:05;;;;;;;104.18;39.03;;;;;;;;;;6110222;23;20174;-92
2022/10/07 23:29:10;;;;;;;101.63;38.88;;;;;;;;;;6108564;23;20320;-90
2022/10/07 23:32:18;;;;;;;85.25;34.60;;;;;;;;;;6109187;23;20158;-92
2022/10/07 23:35:24;;;;;;;77.38;31.77;;;;;;;;;;6111069;23;20171;-91
2022/10/07 23:38:30;;;;;;;77.97;31.90;;;;;;;;;;6111297;23;20201;-90
2022/10/07 23:41:36;;;;;;;78.15;32.95;;;;;;;;;;6109700;23;20202;-90
2022/10/07 23:44:41;;;;;;;75.15;32.55;;;;;;;;;;6108670;23;20186;-89
2022/10/07 23:47:46;;;;;;;73.95;30.60;;;;;;;;;;6108495;23;20161;-89
2022/10/07 23:50:52;;;;;;;76.45;31.98;;;;;;;;;;6109935;23;20169;-90
2022/10/07 23:53:59;;;;;;;81.05;32.40;;;;;;;;;;6109924;23;20174;-91
2022/10/07 23:57:05;;;;;;;75.93;31.40;;;;;;;;;;6111512;23;20211;-91
